This is the latest recevied weather packets stored in our database for station/object FW7644. If no packets are shown the sender has not sent any weather packets the latest 10 day(s).
| Time | Temp. | Humidity | Pressure | Rain* | Wind** | Luminosity | Snow |
|---|---|---|---|---|---|---|---|
| 1777991950 | 27.78° C | 58% | 1024.1 hPa | 0 mm | - | - | - |
| 1777991648 | 27.22° C | 59% | 1024.2 hPa | 0 mm | - | - | - |
| 1777991346 | 26.67° C | 60% | 1024.2 hPa | 0 mm | - | - | - |
| 1777991044 | 27.22° C | 58% | 1024.2 hPa | 0 mm | - | - | - |
| 1777990743 | 27.22° C | 61% | 1024.3 hPa | 0 mm | - | - | - |
| 1777990441 | 26.67° C | 63% | 1024.3 hPa | 0 mm | - | - | - |
| 1777989837 | 26.11° C | 62% | 1024.3 hPa | 0 mm | - | - | - |
| 1777989535 | 26.11° C | 64% | 1024.4 hPa | 0 mm | - | - | - |
| 1777989233 | 26.11° C | 65% | 1024.4 hPa | 0 mm | - | - | - |
| 1777988931 | 25° C | 66% | 1024.4 hPa | 0 mm | - | - | - |
| 1777988630 | 25.56° C | 65% | 1024.4 hPa | 0 mm | - | - | - |
| 1777988328 | 25° C | 68% | 1024.4 hPa | 0 mm | - | - | - |
| 1777988026 | 25.56° C | 65% | 1024.4 hPa | 0 mm | - | - | - |
| 1777987725 | 26.11° C | 66% | 1024.4 hPa | 0 mm | - | - | - |
| 1777987423 | 25° C | 70% | 1024.3 hPa | 0 mm | - | - | - |
| 1777987120 | 24.44° C | 70% | 1024.3 hPa | 0 mm | - | - | - |
| 1777986818 | 23.89° C | 72% | 1024.3 hPa | 0 mm | - | - | - |
| 1777986516 | 24.44° C | 70% | 1024.3 hPa | 0 mm | - | - | - |
| 1777986214 | 25.56° C | 68% | 1024.3 hPa | 0 mm | - | - | - |
| 1777985912 | 25° C | 69% | 1024.2 hPa | 0 mm | - | - | - |
| 1777985610 | 25° C | 68% | 1024.2 hPa | 0 mm | - | - | - |
| 1777985308 | 25° C | 70% | 1024.2 hPa | 0 mm | - | - | - |
| 1777985005 | 24.44° C | 72% | 1024.2 hPa | 0 mm | - | - | - |
| 1777984703 | 23.33° C | 75% | 1024.1 hPa | 0 mm | - | - | - |
| 1777984401 | 23.33° C | 76% | 1024 hPa | 0 mm | - | - | - |
* Rain latest hour (hover to see other rain measurements)
** Current wind speed in m/s (hover to see current wind gust speed)